Latest Weather Observations for Davis*

IDT60801

Issued at 10:31 pm EST Friday 28 August 2015 (issued every 30 minutes, with the page automatically refreshed every 10 minutes)

About weather observations | Map of weather stations | Latest weather observations for ANT | Other Formats
Station Details ID: 300000 Name: DAVIS Lat: -68.57 Lon: 77.97 Height: 18.0 m
Data from the previous 72 hours. | See also: Recent months at Davis*
Date/Time
EST
Temp
°C
App
Temp
°C
Dew
Point
Rel
Hum
%
Delta-T
°C
Wind Press
QNH
hPa
Press
MSL
hPa
Rain
since 9 am
mm
Dir
 
Spd
km/h
Gust
km/h
Spd
kts
Gust
kts
28/10:30pm -18.0 -23.0 -23.7 61 - SSW 7 9 4 5 990.2 - -
28/10:00pm -17.7 -22.2 -23.4 61 - SSE 4 7 2 4 989.9 990.3 -
28/09:30pm -16.7 -21.7 -22.8 59 - S 7 9 4 5 989.6 - -
28/09:00pm -16.8 -22.5 -20.6 72 - SSW 11 13 6 7 989.1 - -
28/08:30pm -17.7 -23.1 -23.0 63 - SSW 9 11 5 6 988.7 - -
28/08:00pm -17.2 -22.2 -23.3 59 - SSW 7 9 4 5 988.5 - -
28/07:30pm -18.5 -22.2 -24.3 60 - CALM 0 0 0 0 988.0 - -
28/07:00pm -17.1 -21.6 -23.6 57 - S 4 7 2 4 987.6 988.0 -
28/06:30pm -16.4 -21.5 -25.3 46 - S 7 11 4 6 987.2 - -
28/06:00pm -18.3 -23.4 -25.9 51 - SW 7 9 4 5 986.8 - -
28/05:30pm -18.1 -23.2 -25.5 52 - SW 7 9 4 5 986.4 - -
28/05:00pm -19.6 -24.5 -26.1 56 - S 6 7 3 4 986.0 - -
28/04:30pm -19.1 -22.9 -26.0 54 - CALM 0 0 0 0 985.6 - -
28/04:00pm -19.8 -23.6 -26.1 57 - CALM 0 0 0 0 985.3 985.6 -
28/03:30pm -19.8 -23.6 -26.7 54 - CALM 0 0 0 0 984.9 - -
28/03:00pm -20.2 -25.1 -26.9 55 - E 6 7 3 4 984.7 - -
28/02:30pm -21.0 -25.9 -27.0 58 - E 6 7 3 4 984.3 - -
28/02:00pm -21.1 -26.2 -27.1 58 - ENE 7 11 4 6 984.1 - -
28/01:30pm -20.8 -25.0 -26.9 58 - E 2 7 1 4 984.0 - -
28/01:00pm -21.2 -26.7 -27.2 58 - NE 9 11 5 6 983.7 984.0 -
28/12:30pm -22.3 -27.4 -28.6 57 - E 7 11 4 6 983.3 - -
28/12:00pm -21.5 -27.4 -27.7 57 - ENE 11 13 6 7 982.9 - -
28/11:30am -21.4 -27.7 -27.4 58 - E 13 15 7 8 982.6 - -
28/11:00am -21.5 -27.4 -28.1 55 - E 11 15 6 8 982.4 - -
28/10:30am -20.6 -26.1 -26.9 57 - ESE 9 11 5 6 982.3 - -
28/10:00am -21.0 -26.9 -27.4 56 - E 11 13 6 7 982.1 982.4 -
28/09:30am -21.2 -27.5 -27.8 55 - ESE 13 17 7 9 981.8 - -
28/09:00am -21.5 -27.8 -27.9 56 - ESE 13 17 7 9 981.9 - -
28/08:30am -21.3 -28.3 -27.9 55 - E 17 17 9 9 981.9 - -
28/08:00am -20.9 -27.5 -27.7 54 - ESE 15 17 8 9 981.7 - -
28/07:30am -21.1 -28.5 -27.7 55 - ESE 19 24 10 13 981.4 - -
28/07:00am -20.4 -28.0 -27.9 51 - ESE 20 24 11 13 981.3 981.6 -
28/06:30am -20.4 -28.4 -27.9 51 - ESE 22 28 12 15 981.2 - -
28/06:00am -20.3 -29.0 -28.0 50 - ESE 26 32 14 17 981.2 - -
28/05:30am -20.8 -29.2 -28.2 51 - ESE 24 32 13 17 981.1 - -
28/05:00am -21.0 -28.4 -28.2 52 - ESE 19 26 10 14 981.2 - -
28/04:30am -20.8 -28.2 -28.4 51 - ESE 19 24 10 13 980.9 - -
28/04:00am -21.4 -28.8 -27.8 56 - ESE 19 20 10 11 980.6 980.9 -
28/03:30am -21.1 -28.1 -27.7 55 - SE 17 20 9 11 980.4 - -
28/03:00am -20.9 -27.9 -27.5 55 - ESE 17 20 9 11 980.2 - -
28/02:30am -21.0 -28.0 -27.6 55 - SE 17 20 9 11 980.1 - -
28/02:00am -20.6 -27.6 -27.2 55 - SE 17 20 9 11 979.7 - -
28/01:30am -20.8 -27.8 -27.2 56 - ESE 17 20 9 11 979.6 - -
28/01:00am -19.9 -26.9 -27.0 53 - SE 17 20 9 11 979.3 979.6 -
28/12:30am -20.2 -26.8 -27.1 54 - ESE 15 19 8 10 979.1 - -
28/12:00am -20.3 -27.3 -27.2 54 - ESE 17 22 9 12 978.9 - -
 
Date/Time
EST
Temp
°C
App
Temp
°C
Dew
Point
Rel
Hum
%
Delta-T
°C
Wind Press
QNH
hPa
Press
MSL
hPa
Rain
since 9 am
mm
Dir
 
Spd
km/h
Gust
km/h
Spd
kts
Gust
kts
27/11:30pm -20.1 -27.1 -26.8 55 - ESE 17 20 9 11 978.8 - -
27/11:00pm -19.8 -26.8 -26.9 53 - ESE 17 20 9 11 978.6 - -
27/10:30pm -19.1 -26.1 -26.7 51 - ESE 17 20 9 11 978.1 - -
27/10:00pm -19.4 -26.8 -26.3 54 - ESE 19 22 10 12 977.6 977.9 -
27/09:30pm -19.6 -26.6 -26.3 55 - ESE 17 22 9 12 977.2 - -
27/09:00pm -18.5 -25.9 -26.1 51 - ESE 19 24 10 13 977.1 - -
27/08:30pm -18.8 -26.2 -25.8 54 - ESE 19 24 10 13 976.8 - -
27/08:00pm -17.9 -25.4 -25.5 51 - ESE 20 24 11 13 976.6 - -
27/07:30pm -17.3 -23.5 -25.2 50 - ESE 13 15 7 8 976.4 - -
27/07:00pm -17.1 -23.7 -25.0 50 - E 15 17 8 9 976.0 976.3 -
27/06:30pm -16.7 -23.3 -24.9 49 - E 15 17 8 9 975.8 - -
27/06:00pm -15.9 -21.3 -24.6 47 - SE 9 13 5 7 975.5 - -
27/05:30pm -16.1 -21.9 -24.5 48 - ESE 11 13 6 7 975.2 - -
27/05:00pm -15.9 -21.7 -24.1 49 - E 11 13 6 7 974.9 - -
27/04:30pm -16.0 -22.6 -23.8 51 - E 15 17 8 9 974.5 - -
27/04:00pm -15.6 -21.8 -23.8 49 - E 13 17 7 9 974.4 974.7 -
27/03:30pm -16.3 -22.5 -23.4 54 - E 13 15 7 8 974.2 - -
27/03:00pm -16.7 -23.2 -23.6 55 - E 15 17 8 9 973.9 - -
27/02:30pm -16.6 -23.5 -23.7 54 - ESE 17 19 9 10 973.4 - -
27/02:00pm -16.7 -23.2 -23.2 57 - E 15 17 8 9 973.3 - -
27/01:30pm -16.7 -23.2 -22.8 59 - ESE 15 17 8 9 973.1 - -
27/01:00pm -16.3 -22.8 -22.2 60 - E 15 17 8 9 972.9 973.2 -
27/12:30pm -16.4 -22.9 -22.1 61 - ESE 15 17 8 9 972.5 - -
27/12:00pm -16.7 -23.6 -22.2 62 - E 17 19 9 10 972.4 - -
27/11:30am -16.6 -22.7 -22.0 63 - ESE 13 17 7 9 972.2 - -
27/11:00am -15.9 -23.2 -21.8 60 - ESE 19 22 10 12 972.2 - -
27/10:30am -16.2 -22.7 -21.6 63 - ESE 15 17 8 9 972.2 - -
27/10:00am -16.7 -23.6 -21.7 65 - E 17 20 9 11 972.1 972.4 -
27/09:30am -17.0 -23.5 -22.2 64 - ESE 15 17 8 9 971.9 - -
27/09:00am -17.2 -23.7 -22.4 64 - ESE 15 19 8 10 971.9 - -
27/08:30am -17.3 -23.8 -22.4 64 - ESE 15 17 8 9 971.7 - -
27/08:00am -17.7 -23.9 -23.0 63 - ESE 13 17 7 9 971.5 - -
27/07:30am -17.8 -24.7 -22.4 67 - E 17 17 9 9 971.4 - -
27/07:00am -18.0 -24.5 -23.5 62 - ESE 15 17 8 9 971.4 971.7 -
27/06:30am -17.6 -24.1 -22.7 64 - ESE 15 17 8 9 971.5 - -
27/06:00am -17.4 -23.5 -21.9 68 - ESE 13 20 7 11 971.6 - -
27/05:30am -17.8 -24.3 -21.6 72 - ESE 15 17 8 9 971.5 - -
27/05:00am -17.1 -23.6 -21.2 70 - NE 15 17 8 9 971.5 - -
27/04:30am -17.2 -23.7 -21.2 71 - ENE 15 17 8 9 971.2 - -
27/04:00am -17.6 -23.3 -21.6 71 - E 11 11 6 6 971.1 971.4 -
27/03:30am -17.2 -22.2 -21.7 68 - ENE 7 9 4 5 971.0 - -
27/03:00am -17.0 -22.4 -22.2 64 - NNE 9 13 5 7 971.0 - -
27/02:30am -16.8 -22.5 -21.6 66 - ENE 11 13 6 7 970.9 - -
27/02:00am -17.0 -23.9 -22.3 63 - ESE 17 20 9 11 971.1 - -
27/01:30am -17.4 -26.4 -23.1 61 - ESE 28 33 15 18 971.1 - -
27/01:00am -17.4 -27.4 -23.5 59 - ESE 33 41 18 22 971.2 971.5 -
27/12:30am -17.0 -25.2 -22.9 60 - SE 24 33 13 18 971.2 - -
27/12:00am -16.8 -25.0 -22.5 61 - ESE 24 33 13 18 971.2 - -
 
Date/Time
EST
Temp
°C
App
Temp
°C
Dew
Point
Rel
Hum
%
Delta-T
°C
Wind Press
QNH
hPa
Press
MSL
hPa
Rain
since 9 am
mm
Dir
 
Spd
km/h
Gust
km/h
Spd
kts
Gust
kts
26/11:30pm -16.9 -25.9 -22.1 64 - ESE 28 33 15 18 971.1 - -
26/11:00pm -16.1 -23.9 -21.3 64 - ESE 22 32 12 17 971.0 - -
26/10:30pm -15.3 -23.5 -20.5 64 - ESE 24 33 13 18 970.7 - -
26/10:00pm -14.6 -21.8 -19.9 64 - ESE 19 24 10 13 970.7 971.0 -
26/09:30pm -14.6 -21.4 -19.3 67 - ESE 17 20 9 11 970.7 - -
26/09:00pm -14.5 -20.9 -18.4 72 - SE 15 20 8 11 970.3 - -
26/08:30pm -14.7 -21.1 -18.8 71 - SE 15 20 8 11 970.6 - -
26/08:00pm -15.0 -21.0 -19.2 70 - SE 13 15 7 8 970.7 - -
26/07:30pm -14.9 -21.3 -20.0 65 - SE 15 19 8 10 970.7 - -
26/07:00pm -15.1 -21.2 -20.2 65 - SSE 13 17 7 9 970.9 971.2 -
26/06:30pm -15.6 -22.1 -20.6 65 - SE 15 19 8 10 971.0 - -
26/06:00pm -16.1 -23.3 -21.5 63 - SE 19 22 10 12 971.1 - -
26/05:30pm -16.6 -24.8 -22.5 60 - ESE 24 32 13 17 971.4 - -
26/05:00pm -16.6 -23.5 -22.1 62 - ESE 17 22 9 12 971.7 - -
26/04:30pm -16.9 -24.7 -22.1 64 - ESE 22 28 12 15 972.0 - -
26/04:00pm -17.3 -26.3 -23.0 61 - ESE 28 37 15 20 972.3 972.6 -
26/03:30pm -17.5 -25.0 -23.7 58 - ESE 20 26 11 14 972.8 - -
26/03:00pm -17.5 -24.8 -23.7 58 - ESE 19 24 10 13 972.9 - -
26/02:30pm -18.0 -26.3 -24.4 57 - ESE 24 30 13 16 972.9 - -
26/02:00pm -17.9 -24.9 -24.5 56 - SE 17 20 9 11 973.1 - -
26/01:30pm -18.6 -25.5 -24.2 61 - SE 17 20 9 11 973.5 - -
26/01:00pm -18.2 -25.1 -24.2 59 - SE 17 22 9 12 973.7 974.0 -
26/12:30pm -19.5 -25.7 -25.1 61 - ESE 13 15 7 8 974.1 - -
26/12:00pm -20.9 -27.1 -26.1 63 - ESE 13 19 7 10 974.2 - -
26/11:30am -20.0 -26.2 -25.5 61 - SE 13 19 7 10 974.0 - -
26/11:00am -19.5 -25.7 -25.4 59 - ESE 13 15 7 8 974.1 - -
26/10:30am -19.3 -25.9 -25.3 59 - ESE 15 17 8 9 974.0 - -
26/10:00am -19.2 -26.2 -25.0 60 - ESE 17 19 9 10 974.4 974.7 -
26/09:30am -18.6 -26.1 -24.8 58 - ESE 20 26 11 14 974.4 - -
26/09:00am -18.3 -24.8 -23.2 65 - ESE 15 20 8 11 974.6 - -
26/08:30am -18.1 -23.5 -23.2 64 - ESE 9 13 5 7 974.8 - -
26/08:00am -18.4 -23.2 -23.3 65 - E 6 9 3 5 974.8 - -
26/07:30am -18.3 -24.1 -23.4 64 - ESE 11 13 6 7 974.6 - -
26/07:00am -19.1 -24.9 -23.8 66 - SE 11 13 6 7 974.8 975.1 -
26/06:30am -19.2 -25.4 -23.8 67 - SE 13 15 7 8 974.9 - -
26/06:00am -19.6 -26.2 -24.5 65 - SSE 15 17 8 9 975.1 - -
26/05:30am -18.8 -23.8 -24.2 62 - SE 7 11 4 6 975.5 - -
26/05:00am -19.0 -24.4 -24.1 64 - SE 9 13 5 7 975.6 - -
26/04:30am -18.7 -23.7 -24.0 63 - ESE 7 9 4 5 975.7 - -
26/04:00am -19.0 -24.8 -23.6 67 - ESE 11 13 6 7 975.7 976.0 -
26/03:30am -18.7 -24.5 -23.3 67 - ESE 11 15 6 8 975.9 - -
26/03:00am -18.9 -24.7 -23.1 69 - ESE 11 13 6 7 976.1 - -
26/02:30am -18.5 -23.9 -22.9 68 - E 9 13 5 7 976.2 - -
26/02:00am -18.8 -23.8 -22.9 70 - NE 7 9 4 5 976.3 - -

Other Formats:

Comma delimited format used in spreadsheet applications
http://www.bom.gov.au/fwo/IDT60803/IDT60803.89571.axf

JavaScript Object Notation format (JSON) in row-major order
http://www.bom.gov.au/fwo/IDT60803/IDT60803.89571.json